createdAt,value
2023-03-29T00:02:02.236Z,53.60
2023-03-29T00:04:29.175Z,53.60
2023-03-29T00:06:56.437Z,53.60
2023-03-29T00:09:23.524Z,53.70
2023-03-29T00:11:50.545Z,53.80
2023-03-29T00:14:17.510Z,53.90
2023-03-29T00:16:46.946Z,54.00
2023-03-29T00:19:14.185Z,54.30
2023-03-29T00:21:41.086Z,54.30
2023-03-29T00:24:08.124Z,54.30
2023-03-29T00:26:35.048Z,54.60
2023-03-29T00:29:02.045Z,54.90
2023-03-29T00:31:29.042Z,55.00
2023-03-29T00:33:56.041Z,55.00
2023-03-29T00:36:23.594Z,55.10
2023-03-29T00:38:50.505Z,55.00
2023-03-29T00:41:17.480Z,55.00
2023-03-29T00:44:01.006Z,55.00
2023-03-29T00:46:28.835Z,55.10
2023-03-29T00:48:58.845Z,55.20
2023-03-29T00:51:27.309Z,55.50
2023-03-29T00:53:56.525Z,55.50
2023-03-29T00:56:31.567Z,55.50
2023-03-29T00:59:05.809Z,55.70
2023-03-29T01:01:39.177Z,55.90
2023-03-29T01:04:18.785Z,55.60
2023-03-29T01:07:03.978Z,55.50
2023-03-29T01:09:32.417Z,55.50
2023-03-29T01:12:01.719Z,55.50
2023-03-29T01:14:34.631Z,55.70
2023-03-29T01:17:01.698Z,55.80
2023-03-29T01:19:33.362Z,55.80
2023-03-29T01:22:15.513Z,56.00
2023-03-29T01:24:56.993Z,56.00
2023-03-29T01:27:42.688Z,56.10
2023-03-29T01:30:12.274Z,56.20
2023-03-29T01:32:42.991Z,56.40
2023-03-29T01:35:19.709Z,56.40
2023-03-29T01:37:53.289Z,56.50
2023-03-29T01:40:20.166Z,56.50
2023-03-29T01:42:47.999Z,56.60
2023-03-29T01:45:22.656Z,56.80
2023-03-29T01:47:55.136Z,56.90
2023-03-29T01:50:54.556Z,57.40
2023-03-29T01:53:21.480Z,57.60
2023-03-29T01:55:52.053Z,57.20
2023-03-29T01:58:22.769Z,57.10
2023-03-29T02:00:54.114Z,56.70
2023-03-29T02:03:24.339Z,56.40
2023-03-29T02:05:51.987Z,56.50
2023-03-29T02:08:20.253Z,56.50
2023-03-29T02:10:47.165Z,56.90
2023-03-29T02:13:14.130Z,57.30
2023-03-29T02:15:44.262Z,57.00
2023-03-29T02:18:12.180Z,56.80
2023-03-29T02:20:40.910Z,56.80
2023-03-29T02:23:10.715Z,56.90
2023-03-29T02:25:38.137Z,56.90
2023-03-29T02:28:06.964Z,56.90
2023-03-29T02:30:39.348Z,56.90
2023-03-29T02:33:06.378Z,57.40
2023-03-29T02:35:36.506Z,57.40
2023-03-29T02:38:05.248Z,57.40
2023-03-29T02:40:33.309Z,57.00
2023-03-29T02:43:01.655Z,56.70
2023-03-29T02:45:29.147Z,56.70
2023-03-29T02:47:58.350Z,57.00
2023-03-29T02:50:26.254Z,57.00
2023-03-29T02:52:55.088Z,56.60
2023-03-29T02:55:23.557Z,56.50
2023-03-29T02:57:50.585Z,56.80
2023-03-29T03:00:20.123Z,57.10
2023-03-29T03:02:48.022Z,57.20
2023-03-29T03:05:15.146Z,57.00
2023-03-29T03:07:42.620Z,56.80
2023-03-29T03:10:10.452Z,56.90
2023-03-29T03:12:40.420Z,56.90
2023-03-29T03:15:07.786Z,57.10
2023-03-29T03:17:40.290Z,57.10
2023-03-29T03:20:10.929Z,57.40
2023-03-29T03:22:38.286Z,57.30
2023-03-29T03:25:05.584Z,57.20
2023-03-29T03:27:34.385Z,57.20
2023-03-29T03:30:01.304Z,57.40
2023-03-29T03:32:28.871Z,57.20
2023-03-29T03:34:56.214Z,57.20
2023-03-29T03:37:23.771Z,57.40
2023-03-29T03:39:50.783Z,57.60
2023-03-29T03:42:17.701Z,57.90
2023-03-29T03:44:45.100Z,58.00
2023-03-29T03:47:14.809Z,58.10
2023-03-29T03:49:42.319Z,58.30
2023-03-29T03:52:09.222Z,58.40
2023-03-29T03:54:36.236Z,58.50
2023-03-29T03:57:03.312Z,58.40
2023-03-29T03:59:30.302Z,58.30
2023-03-29T04:01:58.387Z,58.40
2023-03-29T04:04:25.745Z,58.40
2023-03-29T04:06:52.990Z,58.40
2023-03-29T04:09:20.400Z,58.50
2023-03-29T04:11:47.402Z,58.50
2023-03-29T04:14:14.328Z,58.70
2023-03-29T04:16:41.748Z,58.80
2023-03-29T04:19:08.638Z,59.00
2023-03-29T04:21:35.711Z,58.70
2023-03-29T04:24:02.593Z,58.40
2023-03-29T04:26:29.522Z,58.50
2023-03-29T04:28:56.633Z,58.60
2023-03-29T04:31:23.575Z,58.60
2023-03-29T04:33:51.929Z,58.80
2023-03-29T04:36:18.882Z,58.90
2023-03-29T04:38:48.124Z,59.10
2023-03-29T04:41:15.686Z,59.20
2023-03-29T04:43:46.900Z,59.40
2023-03-29T04:46:14.534Z,59.40
2023-03-29T04:48:42.021Z,59.20
2023-03-29T04:51:08.955Z,59.00
2023-03-29T04:53:35.845Z,59.10
2023-03-29T04:56:03.460Z,59.10
2023-03-29T04:58:32.558Z,59.40
2023-03-29T05:00:59.951Z,59.50
2023-03-29T05:03:27.271Z,59.40
2023-03-29T05:05:54.303Z,59.10
2023-03-29T05:08:21.472Z,59.00
2023-03-29T05:10:50.068Z,59.00
2023-03-29T05:13:17.109Z,59.30
2023-03-29T05:15:44.069Z,59.50
2023-03-29T05:18:11.109Z,59.60
2023-03-29T05:20:38.662Z,59.90
2023-03-29T05:23:05.545Z,59.80
2023-03-29T05:25:33.801Z,59.70
2023-03-29T05:28:01.652Z,59.60
2023-03-29T05:30:28.544Z,59.70
2023-03-29T05:32:55.579Z,59.70
2023-03-29T05:35:24.357Z,59.80
2023-03-29T05:37:51.607Z,59.80
2023-03-29T05:40:18.656Z,59.60
2023-03-29T05:42:45.859Z,59.70
2023-03-29T05:45:12.818Z,59.80
2023-03-29T05:47:39.850Z,59.80
2023-03-29T05:50:09.498Z,59.60
2023-03-29T05:52:36.835Z,59.70
2023-03-29T05:55:04.446Z,59.90
2023-03-29T05:57:31.405Z,59.90
2023-03-29T05:59:58.320Z,60.00
2023-03-29T06:02:26.564Z,60.10
2023-03-29T06:04:54.346Z,60.30
2023-03-29T06:07:21.291Z,60.20
2023-03-29T06:09:48.221Z,60.40
2023-03-29T06:12:15.090Z,60.70
2023-03-29T06:14:42.029Z,61.00
2023-03-29T06:17:11.959Z,60.90
2023-03-29T06:19:38.907Z,60.90
2023-03-29T06:22:05.962Z,61.30
2023-03-29T06:24:33.750Z,61.60
2023-03-29T06:27:01.341Z,61.70
2023-03-29T06:29:28.223Z,61.90
2023-03-29T06:31:57.262Z,62.00
2023-03-29T06:34:24.177Z,62.20
2023-03-29T06:36:51.463Z,62.40
2023-03-29T06:39:18.409Z,62.40
2023-03-29T06:41:45.312Z,62.50
2023-03-29T06:44:12.196Z,62.70
2023-03-29T06:46:39.218Z,62.90
2023-03-29T06:49:06.129Z,63.30
2023-03-29T06:51:32.949Z,63.40
2023-03-29T06:54:00.378Z,63.30
2023-03-29T06:56:30.013Z,63.50
2023-03-29T06:58:56.961Z,63.60
2023-03-29T07:01:24.503Z,63.60
2023-03-29T07:03:51.624Z,63.90
2023-03-29T07:06:20.747Z,64.00
2023-03-29T07:08:49.843Z,64.10
2023-03-29T07:11:18.820Z,64.10
2023-03-29T07:13:46.363Z,64.10
2023-03-29T07:16:13.925Z,64.10
2023-03-29T07:18:41.983Z,64.40
2023-03-29T07:21:09.101Z,64.50
2023-03-29T07:23:36.291Z,64.80
2023-03-29T07:26:03.814Z,64.80
2023-03-29T07:28:30.812Z,65.00
2023-03-29T07:31:08.160Z,64.90
2023-03-29T07:33:35.293Z,65.00
2023-03-29T07:36:03.412Z,65.40
2023-03-29T07:38:31.623Z,65.60
2023-03-29T07:40:58.794Z,65.90
2023-03-29T07:43:25.748Z,65.30
2023-03-29T07:45:53.208Z,65.20
2023-03-29T07:48:20.437Z,65.80
2023-03-29T07:50:49.629Z,66.20
2023-03-29T07:53:16.553Z,66.20
2023-03-29T07:55:47.815Z,66.00
2023-03-29T07:58:14.840Z,66.20
2023-03-29T08:00:43.648Z,66.30
2023-03-29T08:03:11.853Z,66.50
2023-03-29T08:05:41.691Z,66.70
2023-03-29T08:08:09.982Z,66.70
2023-03-29T08:10:37.884Z,66.70
2023-03-29T08:13:07.492Z,67.00
2023-03-29T08:15:35.140Z,67.00
2023-03-29T08:18:04.801Z,67.00
2023-03-29T08:20:32.802Z,67.00
2023-03-29T08:22:59.723Z,67.20
2023-03-29T08:25:27.147Z,67.30
2023-03-29T08:27:54.228Z,67.40
2023-03-29T08:30:21.347Z,67.30
2023-03-29T08:32:50.479Z,67.40
2023-03-29T08:35:19.507Z,67.20
2023-03-29T08:37:47.056Z,67.30
2023-03-29T08:40:20.307Z,67.30
2023-03-29T08:42:58.651Z,67.30
2023-03-29T08:45:29.452Z,67.30
2023-03-29T08:47:56.329Z,67.40
2023-03-29T08:50:25.472Z,67.60
2023-03-29T08:52:57.661Z,67.50
2023-03-29T08:55:30.383Z,67.40
2023-03-29T08:57:57.635Z,67.20
2023-03-29T09:00:29.085Z,67.20
2023-03-29T09:02:57.809Z,67.30
2023-03-29T09:05:28.073Z,67.40
2023-03-29T09:07:55.073Z,67.50
2023-03-29T09:10:25.566Z,67.70
2023-03-29T09:13:00.226Z,67.50
2023-03-29T09:15:45.629Z,67.40
2023-03-29T09:18:25.209Z,67.30
2023-03-29T09:21:01.054Z,67.40
2023-03-29T09:23:31.287Z,67.30
2023-03-29T09:26:04.326Z,67.30
2023-03-29T09:28:48.000Z,67.40
2023-03-29T09:31:23.038Z,67.50
2023-03-29T09:33:54.991Z,67.70
2023-03-29T09:36:40.742Z,67.80
2023-03-29T09:39:09.905Z,67.90
2023-03-29T09:41:41.361Z,67.90
2023-03-29T09:44:27.781Z,68.00
2023-03-29T09:47:08.629Z,67.90
2023-03-29T09:49:38.305Z,68.20
2023-03-29T09:52:09.009Z,68.40
2023-03-29T09:54:36.035Z,68.50
2023-03-29T09:57:03.447Z,68.40
2023-03-29T09:59:30.808Z,68.50
2023-03-29T10:02:12.052Z,68.40
2023-03-29T10:04:39.312Z,68.60
2023-03-29T10:07:07.876Z,68.50
2023-03-29T10:09:35.221Z,68.80
2023-03-29T10:12:05.831Z,68.40
2023-03-29T10:14:37.196Z,68.70
2023-03-29T10:17:05.467Z,68.70
2023-03-29T10:19:35.040Z,68.80
2023-03-29T10:22:04.584Z,68.70
2023-03-29T10:24:31.813Z,68.40
2023-03-29T10:27:00.625Z,68.40
2023-03-29T10:29:27.996Z,68.50
2023-03-29T10:31:55.052Z,68.40
2023-03-29T10:34:26.312Z,68.40
2023-03-29T10:37:00.329Z,68.40
2023-03-29T10:39:33.179Z,68.60
2023-03-29T10:42:01.294Z,68.80
2023-03-29T10:44:33.230Z,68.60
2023-03-29T10:47:21.526Z,68.60
2023-03-29T10:50:01.998Z,68.50
2023-03-29T10:52:29.810Z,68.80
2023-03-29T10:54:56.994Z,68.80
2023-03-29T10:57:30.307Z,68.60
2023-03-29T11:00:00.140Z,68.50
2023-03-29T11:02:45.483Z,68.40
2023-03-29T11:05:20.321Z,68.80
2023-03-29T11:08:11.382Z,68.80
2023-03-29T11:10:38.687Z,68.60
2023-03-29T11:13:15.080Z,68.80
2023-03-29T11:15:46.578Z,68.50
2023-03-29T11:18:32.442Z,68.30
2023-03-29T11:21:14.373Z,68.50
2023-03-29T11:23:47.286Z,68.30
2023-03-29T11:26:41.014Z,68.30
2023-03-29T11:29:31.645Z,68.20
2023-03-29T11:31:58.446Z,68.30
2023-03-29T11:34:41.446Z,68.40
2023-03-29T11:37:25.448Z,68.40
2023-03-29T11:39:55.342Z,68.00
2023-03-29T11:42:24.906Z,68.30
2023-03-29T11:44:54.955Z,68.40
2023-03-29T11:47:24.549Z,68.50
2023-03-29T11:50:13.184Z,68.40
2023-03-29T11:52:43.702Z,68.20
2023-03-29T11:55:15.471Z,68.40
2023-03-29T11:57:52.916Z,68.40
2023-03-29T12:00:26.155Z,68.30
2023-03-29T12:02:58.878Z,68.40
2023-03-29T12:05:28.894Z,68.40
2023-03-29T12:07:55.780Z,68.20
2023-03-29T12:10:26.674Z,68.10
2023-03-29T12:12:53.535Z,68.00
2023-03-29T12:15:23.147Z,68.00
2023-03-29T12:17:49.964Z,67.80
2023-03-29T12:20:23.587Z,68.00
2023-03-29T12:22:51.129Z,68.10
2023-03-29T12:25:23.242Z,68.00
2023-03-29T12:27:54.018Z,68.10
2023-03-29T12:30:21.262Z,68.20
2023-03-29T12:33:01.119Z,68.40
2023-03-29T12:36:00.601Z,68.40
2023-03-29T12:38:30.750Z,68.50
2023-03-29T12:41:00.434Z,68.60
2023-03-29T12:43:37.681Z,68.60
2023-03-29T12:46:09.229Z,68.60
2023-03-29T12:48:40.429Z,68.60
2023-03-29T12:51:13.895Z,68.70
2023-03-29T12:53:40.809Z,68.70
2023-03-29T12:56:15.908Z,68.70
2023-03-29T12:58:49.334Z,68.90
2023-03-29T13:01:23.091Z,68.80
2023-03-29T13:03:50.098Z,68.80
2023-03-29T13:06:30.333Z,68.60
2023-03-29T13:09:00.367Z,68.50
2023-03-29T13:11:29.529Z,68.70
2023-03-29T13:13:57.452Z,68.30
2023-03-29T13:16:33.092Z,68.20
2023-03-29T13:19:08.643Z,68.40
2023-03-29T13:21:41.119Z,68.30
2023-03-29T13:24:26.616Z,68.10
2023-03-29T13:27:12.914Z,68.00
2023-03-29T13:29:43.428Z,68.00
2023-03-29T13:32:16.375Z,68.20
2023-03-29T13:34:55.506Z,68.40
2023-03-29T13:37:26.846Z,68.20
2023-03-29T13:39:54.597Z,67.80
2023-03-29T13:42:34.366Z,67.80
2023-03-29T13:45:10.652Z,67.90
2023-03-29T13:47:43.231Z,67.50
2023-03-29T13:50:20.882Z,67.60
2023-03-29T13:52:59.008Z,67.90
2023-03-29T13:55:35.474Z,67.90
2023-03-29T13:58:06.987Z,67.90
2023-03-29T14:00:43.498Z,67.80
2023-03-29T14:03:15.723Z,67.50
2023-03-29T14:05:44.740Z,67.40
2023-03-29T14:08:21.026Z,67.50
2023-03-29T14:10:48.617Z,67.40
2023-03-29T14:13:17.521Z,67.30
2023-03-29T14:15:50.798Z,67.20
2023-03-29T14:18:19.692Z,67.20
2023-03-29T14:20:47.474Z,67.10
2023-03-29T14:23:17.377Z,67.00
2023-03-29T14:25:44.326Z,67.00
2023-03-29T14:28:20.621Z,66.80
2023-03-29T14:30:48.075Z,66.80
2023-03-29T14:33:14.902Z,66.80
2023-03-29T14:35:42.031Z,66.70
2023-03-29T14:38:12.804Z,66.60
2023-03-29T14:40:40.110Z,66.50
2023-03-29T14:43:11.184Z,66.50
2023-03-29T14:45:38.375Z,66.40
2023-03-29T14:48:06.083Z,66.20
2023-03-29T14:50:33.207Z,66.40
2023-03-29T14:53:00.841Z,66.50
2023-03-29T14:55:29.309Z,66.50
2023-03-29T14:57:57.422Z,66.30
2023-03-29T15:00:27.060Z,66.20
2023-03-29T15:02:57.372Z,66.30
2023-03-29T15:05:36.630Z,66.30
2023-03-29T15:08:04.141Z,66.30
2023-03-29T15:10:32.501Z,66.20
2023-03-29T15:13:01.182Z,66.10
2023-03-29T15:15:28.294Z,66.00
2023-03-29T15:17:57.352Z,66.00
2023-03-29T15:20:26.327Z,66.00
2023-03-29T15:22:58.908Z,65.60
2023-03-29T15:25:33.291Z,65.50
2023-03-29T15:28:01.686Z,65.60
2023-03-29T15:30:34.737Z,65.80
2023-03-29T15:33:20.960Z,65.60
2023-03-29T15:35:49.750Z,65.60
2023-03-29T15:38:17.070Z,65.90
2023-03-29T15:40:44.054Z,65.90
2023-03-29T15:43:11.850Z,66.00
2023-03-29T15:45:38.893Z,66.00
2023-03-29T15:48:33.831Z,66.00
2023-03-29T15:51:05.743Z,66.00
2023-03-29T15:53:33.700Z,65.90
2023-03-29T15:56:02.128Z,65.90
2023-03-29T15:58:30.766Z,66.00
2023-03-29T16:01:00.524Z,66.00
2023-03-29T16:03:27.464Z,66.00
2023-03-29T16:05:57.059Z,66.00
2023-03-29T16:08:24.845Z,66.00
2023-03-29T16:10:51.800Z,66.00
2023-03-29T16:13:18.700Z,66.00
2023-03-29T16:15:45.982Z,66.00
2023-03-29T16:18:12.864Z,66.00
2023-03-29T16:20:39.934Z,66.00
2023-03-29T16:23:09.505Z,65.90
2023-03-29T16:25:38.072Z,65.90
2023-03-29T16:28:06.051Z,66.00
2023-03-29T16:30:33.334Z,66.00
2023-03-29T16:33:01.682Z,66.00
2023-03-29T16:35:31.391Z,66.00
2023-03-29T16:37:58.339Z,66.00
2023-03-29T16:40:26.400Z,66.10
2023-03-29T16:42:53.495Z,66.20
2023-03-29T16:45:20.885Z,66.20
2023-03-29T16:47:47.903Z,66.30
2023-03-29T16:50:16.214Z,66.40
2023-03-29T16:52:43.404Z,66.50
2023-03-29T16:55:13.735Z,66.50
2023-03-29T16:57:41.264Z,66.50
2023-03-29T17:00:10.499Z,66.60
2023-03-29T17:02:37.447Z,66.60
2023-03-29T17:05:04.590Z,66.60
2023-03-29T17:07:31.572Z,66.60
2023-03-29T17:09:58.451Z,66.70
2023-03-29T17:12:25.462Z,66.80
2023-03-29T17:14:52.880Z,66.90
2023-03-29T17:17:19.814Z,66.90
2023-03-29T17:19:46.841Z,67.30
2023-03-29T17:22:13.801Z,67.00
2023-03-29T17:24:40.685Z,66.90
2023-03-29T17:27:07.734Z,66.90
2023-03-29T17:29:34.641Z,66.90
2023-03-29T17:32:01.569Z,67.00
2023-03-29T17:34:29.247Z,67.20
2023-03-29T17:36:56.377Z,67.30
2023-03-29T17:39:25.259Z,67.30
2023-03-29T17:41:52.394Z,67.40
2023-03-29T17:44:19.571Z,67.50
2023-03-29T17:46:46.883Z,67.60
2023-03-29T17:49:14.416Z,67.60
2023-03-29T17:51:41.460Z,67.70
2023-03-29T17:54:08.394Z,67.70
2023-03-29T17:56:35.442Z,67.80
2023-03-29T17:59:02.383Z,67.90
2023-03-29T18:01:29.550Z,67.90
2023-03-29T18:03:56.678Z,68.10
2023-03-29T18:06:23.561Z,68.30
2023-03-29T18:08:50.620Z,68.40
2023-03-29T18:11:22.462Z,68.50
2023-03-29T18:13:50.205Z,68.50
2023-03-29T18:16:17.257Z,68.60
2023-03-29T18:18:46.363Z,68.70
2023-03-29T18:21:14.483Z,68.70
2023-03-29T18:23:44.097Z,68.60
2023-03-29T18:26:11.010Z,68.70
2023-03-29T18:28:38.535Z,68.70
2023-03-29T18:31:06.042Z,68.90
2023-03-29T18:33:35.578Z,68.90
2023-03-29T18:36:04.888Z,68.90
2023-03-29T18:38:35.504Z,69.00
2023-03-29T18:41:05.195Z,69.00
2023-03-29T18:43:33.671Z,69.10
2023-03-29T18:46:00.710Z,69.20
2023-03-29T18:48:27.923Z,69.40
2023-03-29T18:50:57.983Z,69.40
2023-03-29T18:53:25.093Z,69.20
2023-03-29T18:55:51.959Z,69.20
2023-03-29T18:58:20.483Z,69.40
2023-03-29T19:00:47.402Z,69.40
2023-03-29T19:03:14.535Z,69.50
2023-03-29T19:05:41.651Z,69.50
2023-03-29T19:08:09.201Z,69.50
2023-03-29T19:10:36.910Z,69.60
2023-03-29T19:13:04.732Z,69.60
2023-03-29T19:15:32.657Z,69.40
2023-03-29T19:17:59.685Z,69.60
2023-03-29T19:20:26.772Z,69.60
2023-03-29T19:22:53.810Z,69.60
2023-03-29T19:25:20.832Z,69.70
2023-03-29T19:27:48.066Z,69.80
2023-03-29T19:30:15.346Z,69.80
2023-03-29T19:32:42.347Z,69.80
2023-03-29T19:35:09.825Z,69.80
2023-03-29T19:37:36.777Z,69.80
2023-03-29T19:40:06.632Z,69.90
2023-03-29T19:42:35.987Z,70.00
2023-03-29T19:45:04.087Z,69.90
2023-03-29T19:47:31.331Z,69.80
2023-03-29T19:49:59.026Z,69.80
2023-03-29T19:52:29.212Z,69.70
2023-03-29T19:55:00.694Z,69.70
2023-03-29T19:57:31.246Z,69.60
2023-03-29T20:00:01.197Z,69.90
2023-03-29T20:02:37.385Z,70.10
2023-03-29T20:05:06.832Z,70.10
2023-03-29T20:07:33.752Z,70.20
2023-03-29T20:10:00.983Z,70.40
2023-03-29T20:12:27.904Z,70.50
2023-03-29T20:14:54.741Z,70.60
2023-03-29T20:17:21.698Z,70.80
2023-03-29T20:19:48.646Z,70.80
2023-03-29T20:22:15.591Z,71.00
2023-03-29T20:24:42.433Z,71.00
2023-03-29T20:27:09.743Z,71.20
2023-03-29T20:29:36.702Z,71.20
2023-03-29T20:32:04.193Z,71.20
2023-03-29T20:34:31.369Z,71.20
2023-03-29T20:37:01.042Z,71.10
2023-03-29T20:39:29.712Z,71.10
2023-03-29T20:41:56.718Z,71.20
2023-03-29T20:44:26.458Z,71.30
2023-03-29T20:47:04.146Z,71.20
2023-03-29T20:49:37.589Z,71.20
2023-03-29T20:52:10.825Z,71.20
2023-03-29T20:54:39.013Z,71.20
2023-03-29T20:57:06.967Z,71.20
2023-03-29T20:59:34.673Z,71.30
2023-03-29T21:02:01.713Z,71.40
2023-03-29T21:04:28.824Z,71.40
2023-03-29T21:06:56.312Z,71.50
2023-03-29T21:09:25.656Z,71.50
2023-03-29T21:11:52.910Z,71.50
2023-03-29T21:14:21.494Z,71.60
2023-03-29T21:16:48.869Z,71.50
2023-03-29T21:19:16.783Z,71.40
2023-03-29T21:21:44.956Z,71.50
2023-03-29T21:24:13.708Z,71.40
2023-03-29T21:26:41.341Z,71.50
2023-03-29T21:29:08.271Z,71.60
2023-03-29T21:31:35.636Z,71.70
2023-03-29T21:34:02.507Z,71.70
2023-03-29T21:36:29.433Z,71.60
2023-03-29T21:38:56.878Z,71.60
2023-03-29T21:41:25.613Z,71.50
2023-03-29T21:43:53.081Z,71.60
2023-03-29T21:46:20.021Z,71.50
2023-03-29T21:48:47.478Z,71.50
2023-03-29T21:51:14.764Z,71.50
2023-03-29T21:53:41.674Z,71.70
2023-03-29T21:56:08.893Z,71.60
2023-03-29T21:58:36.152Z,71.60
2023-03-29T22:01:04.018Z,71.70
2023-03-29T22:03:31.605Z,71.80
2023-03-29T22:05:59.411Z,71.90
2023-03-29T22:08:27.120Z,72.00
2023-03-29T22:10:55.665Z,72.00
2023-03-29T22:13:27.404Z,72.00
2023-03-29T22:15:55.257Z,72.00
2023-03-29T22:18:22.238Z,71.90
2023-03-29T22:20:49.249Z,72.00
2023-03-29T22:23:16.885Z,72.00
2023-03-29T22:25:43.780Z,72.10
2023-03-29T22:28:10.699Z,72.10
2023-03-29T22:30:37.577Z,72.20
2023-03-29T22:33:04.679Z,72.30
2023-03-29T22:35:33.735Z,72.30
2023-03-29T22:38:01.174Z,72.30
2023-03-29T22:40:28.157Z,72.30
2023-03-29T22:42:55.042Z,72.20
2023-03-29T22:45:22.017Z,72.20
2023-03-29T22:47:49.128Z,72.20
2023-03-29T22:50:16.544Z,72.30
2023-03-29T22:52:43.435Z,72.30
2023-03-29T22:55:10.709Z,72.40
2023-03-29T22:57:37.836Z,72.50
2023-03-29T23:00:09.366Z,72.60
2023-03-29T23:02:36.928Z,72.80
2023-03-29T23:05:04.624Z,73.00
2023-03-29T23:07:36.447Z,73.20
2023-03-29T23:10:04.522Z,73.30
2023-03-29T23:12:31.575Z,73.50
2023-03-29T23:14:59.153Z,73.80
2023-03-29T23:17:26.185Z,73.90
2023-03-29T23:19:53.143Z,73.90
2023-03-29T23:22:20.106Z,74.00
2023-03-29T23:24:47.574Z,74.30
2023-03-29T23:27:15.580Z,74.20
2023-03-29T23:29:42.518Z,74.50
2023-03-29T23:32:09.457Z,74.70
2023-03-29T23:34:36.404Z,74.70
2023-03-29T23:37:03.317Z,74.60
2023-03-29T23:39:30.877Z,74.90
2023-03-29T23:41:57.807Z,74.90
2023-03-29T23:44:24.767Z,74.90
2023-03-29T23:46:51.718Z,75.10
2023-03-29T23:49:18.749Z,74.90
2023-03-29T23:51:48.721Z,75.00
2023-03-29T23:54:17.398Z,75.10
2023-03-29T23:56:44.383Z,75.20
2023-03-29T23:59:11.317Z,75.30
